sensor_id;sensor_type;location;lat;lon;timestamp;P1;durP1;ratioP1;P2;durP2;ratioP2
19038;SDS011;9652;49.014;12.052;2023-02-01T00:01:22;3.90;;;3.60;;
19038;SDS011;9652;49.014;12.052;2023-02-01T00:03:50;4.57;;;4.17;;
19038;SDS011;9652;49.014;12.052;2023-02-01T00:06:17;4.03;;;3.73;;
19038;SDS011;9652;49.014;12.052;2023-02-01T00:08:44;4.47;;;3.63;;
19038;SDS011;9652;49.014;12.052;2023-02-01T00:11:11;4.00;;;3.53;;
19038;SDS011;9652;49.014;12.052;2023-02-01T00:13:40;4.97;;;4.13;;
19038;SDS011;9652;49.014;12.052;2023-02-01T00:16:10;4.00;;;3.70;;
19038;SDS011;9652;49.014;12.052;2023-02-01T00:18:41;4.47;;;4.07;;
19038;SDS011;9652;49.014;12.052;2023-02-01T00:21:09;4.53;;;4.13;;
19038;SDS011;9652;49.014;12.052;2023-02-01T00:23:37;4.70;;;4.30;;
19038;SDS011;9652;49.014;12.052;2023-02-01T00:26:05;4.07;;;3.77;;
19038;SDS011;9652;49.014;12.052;2023-02-01T00:28:40;4.83;;;3.77;;
19038;SDS011;9652;49.014;12.052;2023-02-01T00:31:07;4.03;;;3.63;;
19038;SDS011;9652;49.014;12.052;2023-02-01T00:33:36;3.87;;;3.57;;
19038;SDS011;9652;49.014;12.052;2023-02-01T00:36:03;4.70;;;4.30;;
19038;SDS011;9652;49.014;12.052;2023-02-01T00:38:35;4.37;;;4.07;;
19038;SDS011;9652;49.014;12.052;2023-02-01T00:41:05;4.23;;;3.77;;
19038;SDS011;9652;49.014;12.052;2023-02-01T00:43:36;4.67;;;4.20;;
19038;SDS011;9652;49.014;12.052;2023-02-01T00:46:03;4.60;;;4.20;;
19038;SDS011;9652;49.014;12.052;2023-02-01T00:48:30;4.53;;;4.17;;
19038;SDS011;9652;49.014;12.052;2023-02-01T00:51:00;4.30;;;3.47;;
19038;SDS011;9652;49.014;12.052;2023-02-01T00:53:28;4.10;;;3.67;;
19038;SDS011;9652;49.014;12.052;2023-02-01T00:55:56;4.67;;;4.27;;
19038;SDS011;9652;49.014;12.052;2023-02-01T00:58:24;4.40;;;4.10;;
19038;SDS011;9652;49.014;12.052;2023-02-01T01:01:00;4.80;;;4.37;;
19038;SDS011;9652;49.014;12.052;2023-02-01T01:03:28;4.63;;;4.00;;
19038;SDS011;9652;49.014;12.052;2023-02-01T01:06:00;4.73;;;4.20;;
19038;SDS011;9652;49.014;12.052;2023-02-01T01:08:30;4.47;;;4.07;;
19038;SDS011;9652;49.014;12.052;2023-02-01T01:10:57;5.07;;;4.40;;
19038;SDS011;9652;49.014;12.052;2023-02-01T01:13:25;4.73;;;4.33;;
19038;SDS011;9652;49.014;12.052;2023-02-01T01:15:52;5.17;;;4.63;;
19038;SDS011;9652;49.014;12.052;2023-02-01T01:18:19;5.60;;;5.00;;
19038;SDS011;9652;49.014;12.052;2023-02-01T01:20:47;5.00;;;4.50;;
19038;SDS011;9652;49.014;12.052;2023-02-01T01:23:15;4.57;;;4.17;;
19038;SDS011;9652;49.014;12.052;2023-02-01T01:25:42;5.50;;;4.73;;
19038;SDS011;9652;49.014;12.052;2023-02-01T01:28:09;4.87;;;4.40;;
19038;SDS011;9652;49.014;12.052;2023-02-01T01:30:36;5.90;;;5.07;;
19038;SDS011;9652;49.014;12.052;2023-02-01T01:33:04;4.77;;;4.37;;
19038;SDS011;9652;49.014;12.052;2023-02-01T01:35:31;7.77;;;5.50;;
19038;SDS011;9652;49.014;12.052;2023-02-01T01:37:59;5.40;;;4.83;;
19038;SDS011;9652;49.014;12.052;2023-02-01T01:40:29;4.73;;;4.27;;
19038;SDS011;9652;49.014;12.052;2023-02-01T01:42:57;5.17;;;4.50;;
19038;SDS011;9652;49.014;12.052;2023-02-01T01:45:25;5.37;;;4.63;;
19038;SDS011;9652;49.014;12.052;2023-02-01T01:47:56;5.30;;;4.60;;
19038;SDS011;9652;49.014;12.052;2023-02-01T01:50:27;6.03;;;4.33;;
19038;SDS011;9652;49.014;12.052;2023-02-01T01:52:58;5.10;;;4.70;;
19038;SDS011;9652;49.014;12.052;2023-02-01T01:55:33;5.77;;;4.90;;
19038;SDS011;9652;49.014;12.052;2023-02-01T01:58:08;5.23;;;4.30;;
19038;SDS011;9652;49.014;12.052;2023-02-01T02:00:40;4.23;;;3.93;;
19038;SDS011;9652;49.014;12.052;2023-02-01T02:03:09;5.47;;;4.90;;
19038;SDS011;9652;49.014;12.052;2023-02-01T02:05:42;4.33;;;3.93;;
19038;SDS011;9652;49.014;12.052;2023-02-01T02:08:10;4.40;;;4.00;;
19038;SDS011;9652;49.014;12.052;2023-02-01T02:10:40;3.80;;;3.50;;
19038;SDS011;9652;49.014;12.052;2023-02-01T02:13:21;4.53;;;4.13;;
19038;SDS011;9652;49.014;12.052;2023-02-01T02:15:50;4.50;;;3.80;;
19038;SDS011;9652;49.014;12.052;2023-02-01T02:18:31;4.20;;;3.90;;
19038;SDS011;9652;49.014;12.052;2023-02-01T02:21:12;4.33;;;3.93;;
19038;SDS011;9652;49.014;12.052;2023-02-01T02:27:19;3.97;;;3.67;;
19038;SDS011;9652;49.014;12.052;2023-02-01T02:33:16;5.10;;;3.70;;
19038;SDS011;9652;49.014;12.052;2023-02-01T02:36:15;3.53;;;3.30;;
19038;SDS011;9652;49.014;12.052;2023-02-01T02:38:57;3.90;;;3.60;;
19038;SDS011;9652;49.014;12.052;2023-02-01T02:41:36;4.30;;;4.00;;
19038;SDS011;9652;49.014;12.052;2023-02-01T02:44:34;4.03;;;3.70;;
19038;SDS011;9652;49.014;12.052;2023-02-01T02:47:32;4.93;;;4.03;;
19038;SDS011;9652;49.014;12.052;2023-02-01T02:50:09;4.57;;;4.00;;
19038;SDS011;9652;49.014;12.052;2023-02-01T02:53:04;3.83;;;3.53;;
19038;SDS011;9652;49.014;12.052;2023-02-01T02:55:57;3.93;;;3.33;;
19038;SDS011;9652;49.014;12.052;2023-02-01T02:58:43;4.20;;;3.80;;
19038;SDS011;9652;49.014;12.052;2023-02-01T03:01:31;3.27;;;3.07;;
19038;SDS011;9652;49.014;12.052;2023-02-01T03:04:17;4.30;;;3.70;;
19038;SDS011;9652;49.014;12.052;2023-02-01T03:06:49;4.23;;;3.83;;
19038;SDS011;9652;49.014;12.052;2023-02-01T03:09:19;3.60;;;3.30;;
19038;SDS011;9652;49.014;12.052;2023-02-01T03:11:55;3.60;;;3.30;;
19038;SDS011;9652;49.014;12.052;2023-02-01T03:14:47;3.53;;;3.23;;
19038;SDS011;9652;49.014;12.052;2023-02-01T03:17:24;4.07;;;3.67;;
19038;SDS011;9652;49.014;12.052;2023-02-01T03:19:58;4.20;;;3.80;;
19038;SDS011;9652;49.014;12.052;2023-02-01T03:22:31;3.60;;;3.33;;
19038;SDS011;9652;49.014;12.052;2023-02-01T03:25:01;4.17;;;3.87;;
19038;SDS011;9652;49.014;12.052;2023-02-01T03:27:37;4.10;;;3.80;;
19038;SDS011;9652;49.014;12.052;2023-02-01T03:30:14;3.93;;;3.63;;
19038;SDS011;9652;49.014;12.052;2023-02-01T03:32:48;3.67;;;3.37;;
19038;SDS011;9652;49.014;12.052;2023-02-01T03:35:30;3.67;;;3.37;;
19038;SDS011;9652;49.014;12.052;2023-02-01T03:38:08;4.57;;;4.17;;
19038;SDS011;9652;49.014;12.052;2023-02-01T03:40:45;4.00;;;3.23;;
19038;SDS011;9652;49.014;12.052;2023-02-01T03:43:20;3.77;;;3.47;;
19038;SDS011;9652;49.014;12.052;2023-02-01T03:45:52;3.50;;;3.20;;
19038;SDS011;9652;49.014;12.052;2023-02-01T03:48:26;3.57;;;3.23;;
19038;SDS011;9652;49.014;12.052;2023-02-01T03:50:57;3.67;;;3.40;;
19038;SDS011;9652;49.014;12.052;2023-02-01T03:53:31;3.77;;;3.43;;
19038;SDS011;9652;49.014;12.052;2023-02-01T03:56:05;3.87;;;3.57;;
19038;SDS011;9652;49.014;12.052;2023-02-01T03:58:33;3.90;;;3.60;;
19038;SDS011;9652;49.014;12.052;2023-02-01T04:01:01;3.70;;;3.50;;
19038;SDS011;9652;49.014;12.052;2023-02-01T04:03:34;3.47;;;3.20;;
19038;SDS011;9652;49.014;12.052;2023-02-01T04:06:02;3.83;;;3.53;;
19038;SDS011;9652;49.014;12.052;2023-02-01T04:08:29;3.90;;;3.60;;
19038;SDS011;9652;49.014;12.052;2023-02-01T04:10:57;4.03;;;3.63;;
19038;SDS011;9652;49.014;12.052;2023-02-01T04:13:24;3.90;;;3.60;;
19038;SDS011;9652;49.014;12.052;2023-02-01T04:15:52;4.83;;;3.83;;
19038;SDS011;9652;49.014;12.052;2023-02-01T04:18:19;3.83;;;3.57;;
19038;SDS011;9652;49.014;12.052;2023-02-01T04:20:46;3.87;;;3.60;;
19038;SDS011;9652;49.014;12.052;2023-02-01T04:23:13;3.73;;;3.47;;
19038;SDS011;9652;49.014;12.052;2023-02-01T04:25:42;3.37;;;3.10;;
19038;SDS011;9652;49.014;12.052;2023-02-01T04:28:09;3.83;;;3.53;;
19038;SDS011;9652;49.014;12.052;2023-02-01T04:30:36;3.70;;;3.40;;
19038;SDS011;9652;49.014;12.052;2023-02-01T04:33:03;3.40;;;3.20;;
19038;SDS011;9652;49.014;12.052;2023-02-01T04:35:31;3.70;;;3.40;;
19038;SDS011;9652;49.014;12.052;2023-02-01T04:37:58;3.50;;;3.30;;
19038;SDS011;9652;49.014;12.052;2023-02-01T04:40:26;3.80;;;3.50;;
19038;SDS011;9652;49.014;12.052;2023-02-01T04:42:54;3.70;;;3.40;;
19038;SDS011;9652;49.014;12.052;2023-02-01T04:45:21;3.40;;;3.10;;
19038;SDS011;9652;49.014;12.052;2023-02-01T04:47:48;2.97;;;2.77;;
19038;SDS011;9652;49.014;12.052;2023-02-01T04:50:16;3.50;;;3.30;;
19038;SDS011;9652;49.014;12.052;2023-02-01T04:52:43;3.80;;;3.40;;
19038;SDS011;9652;49.014;12.052;2023-02-01T04:55:11;3.37;;;3.10;;
19038;SDS011;9652;49.014;12.052;2023-02-01T04:57:39;3.70;;;3.50;;
19038;SDS011;9652;49.014;12.052;2023-02-01T05:00:09;3.57;;;3.30;;
19038;SDS011;9652;49.014;12.052;2023-02-01T05:02:38;3.17;;;2.97;;
19038;SDS011;9652;49.014;12.052;2023-02-01T05:05:05;3.20;;;2.90;;
19038;SDS011;9652;49.014;12.052;2023-02-01T05:07:33;3.30;;;3.00;;
19038;SDS011;9652;49.014;12.052;2023-02-01T05:10:00;3.57;;;3.27;;
19038;SDS011;9652;49.014;12.052;2023-02-01T05:12:27;3.67;;;3.47;;
19038;SDS011;9652;49.014;12.052;2023-02-01T05:15:13;3.10;;;2.90;;
19038;SDS011;9652;49.014;12.052;2023-02-01T05:17:40;7.37;;;3.37;;
19038;SDS011;9652;49.014;12.052;2023-02-01T05:20:08;3.60;;;3.40;;
19038;SDS011;9652;49.014;12.052;2023-02-01T05:22:36;3.40;;;3.10;;
19038;SDS011;9652;49.014;12.052;2023-02-01T05:25:03;3.33;;;3.13;;
19038;SDS011;9652;49.014;12.052;2023-02-01T05:27:31;3.23;;;2.93;;
19038;SDS011;9652;49.014;12.052;2023-02-01T05:29:58;3.37;;;3.17;;
19038;SDS011;9652;49.014;12.052;2023-02-01T05:32:26;3.27;;;3.07;;
19038;SDS011;9652;49.014;12.052;2023-02-01T05:34:53;2.73;;;2.63;;
19038;SDS011;9652;49.014;12.052;2023-02-01T05:37:21;3.23;;;3.00;;
19038;SDS011;9652;49.014;12.052;2023-02-01T05:39:49;3.50;;;3.20;;
19038;SDS011;9652;49.014;12.052;2023-02-01T05:42:16;3.47;;;3.20;;
19038;SDS011;9652;49.014;12.052;2023-02-01T05:44:43;3.27;;;3.07;;
19038;SDS011;9652;49.014;12.052;2023-02-01T05:47:10;3.83;;;3.53;;
19038;SDS011;9652;49.014;12.052;2023-02-01T05:49:39;3.37;;;2.90;;
19038;SDS011;9652;49.014;12.052;2023-02-01T05:52:06;3.57;;;3.27;;
19038;SDS011;9652;49.014;12.052;2023-02-01T05:54:34;3.50;;;3.30;;
19038;SDS011;9652;49.014;12.052;2023-02-01T05:57:01;3.23;;;3.03;;
19038;SDS011;9652;49.014;12.052;2023-02-01T05:59:28;2.73;;;2.53;;
19038;SDS011;9652;49.014;12.052;2023-02-01T06:01:55;3.37;;;3.17;;
19038;SDS011;9652;49.014;12.052;2023-02-01T06:04:22;3.47;;;3.27;;
19038;SDS011;9652;49.014;12.052;2023-02-01T06:06:50;3.37;;;3.17;;
19038;SDS011;9652;49.014;12.052;2023-02-01T06:09:18;3.70;;;3.50;;
19038;SDS011;9652;49.014;12.052;2023-02-01T06:11:45;3.60;;;3.30;;
19038;SDS011;9652;49.014;12.052;2023-02-01T06:14:12;3.10;;;2.90;;
19038;SDS011;9652;49.014;12.052;2023-02-01T06:16:39;3.43;;;3.20;;
19038;SDS011;9652;49.014;12.052;2023-02-01T06:19:06;3.43;;;3.23;;
19038;SDS011;9652;49.014;12.052;2023-02-01T06:21:34;3.40;;;3.10;;
19038;SDS011;9652;49.014;12.052;2023-02-01T06:24:03;3.37;;;3.10;;
19038;SDS011;9652;49.014;12.052;2023-02-01T06:26:31;3.07;;;2.77;;
19038;SDS011;9652;49.014;12.052;2023-02-01T06:28:58;3.20;;;3.00;;
19038;SDS011;9652;49.014;12.052;2023-02-01T06:31:25;3.20;;;2.90;;
19038;SDS011;9652;49.014;12.052;2023-02-01T06:33:53;3.37;;;3.17;;
19038;SDS011;9652;49.014;12.052;2023-02-01T06:36:20;3.20;;;3.00;;
19038;SDS011;9652;49.014;12.052;2023-02-01T06:38:47;3.23;;;3.03;;
19038;SDS011;9652;49.014;12.052;2023-02-01T06:41:16;3.53;;;3.27;;
19038;SDS011;9652;49.014;12.052;2023-02-01T06:43:45;3.33;;;3.03;;
19038;SDS011;9652;49.014;12.052;2023-02-01T06:46:12;3.53;;;3.30;;
19038;SDS011;9652;49.014;12.052;2023-02-01T06:48:40;3.33;;;3.10;;
19038;SDS011;9652;49.014;12.052;2023-02-01T06:51:15;3.20;;;2.90;;
19038;SDS011;9652;49.014;12.052;2023-02-01T06:53:47;3.70;;;3.13;;
19038;SDS011;9652;49.014;12.052;2023-02-01T06:56:15;3.67;;;3.33;;
19038;SDS011;9652;49.014;12.052;2023-02-01T06:58:42;3.33;;;3.13;;
19038;SDS011;9652;49.014;12.052;2023-02-01T07:01:10;3.30;;;3.10;;
19038;SDS011;9652;49.014;12.052;2023-02-01T07:03:38;3.50;;;3.20;;
19038;SDS011;9652;49.014;12.052;2023-02-01T07:06:06;3.37;;;3.07;;
19038;SDS011;9652;49.014;12.052;2023-02-01T07:08:35;3.37;;;3.17;;
19038;SDS011;9652;49.014;12.052;2023-02-01T07:11:04;3.33;;;3.13;;
19038;SDS011;9652;49.014;12.052;2023-02-01T07:13:35;3.83;;;3.53;;
19038;SDS011;9652;49.014;12.052;2023-02-01T07:16:03;4.00;;;3.70;;
19038;SDS011;9652;49.014;12.052;2023-02-01T07:18:32;3.23;;;3.03;;
19038;SDS011;9652;49.014;12.052;2023-02-01T07:21:00;3.67;;;3.43;;
19038;SDS011;9652;49.014;12.052;2023-02-01T07:23:27;3.13;;;2.93;;
19038;SDS011;9652;49.014;12.052;2023-02-01T07:25:55;3.87;;;3.57;;
19038;SDS011;9652;49.014;12.052;2023-02-01T07:28:23;3.43;;;3.13;;
19038;SDS011;9652;49.014;12.052;2023-02-01T07:30:52;3.10;;;2.90;;
19038;SDS011;9652;49.014;12.052;2023-02-01T07:33:20;4.03;;;3.10;;
19038;SDS011;9652;49.014;12.052;2023-02-01T07:35:48;3.40;;;3.20;;
19038;SDS011;9652;49.014;12.052;2023-02-01T07:38:17;3.40;;;3.17;;
19038;SDS011;9652;49.014;12.052;2023-02-01T07:40:46;3.47;;;3.13;;
19038;SDS011;9652;49.014;12.052;2023-02-01T07:43:13;3.60;;;3.30;;
19038;SDS011;9652;49.014;12.052;2023-02-01T07:45:40;3.60;;;3.40;;
19038;SDS011;9652;49.014;12.052;2023-02-01T07:48:09;3.70;;;3.37;;
19038;SDS011;9652;49.014;12.052;2023-02-01T07:50:36;8.23;;;3.70;;
19038;SDS011;9652;49.014;12.052;2023-02-01T07:53:03;4.53;;;3.40;;
19038;SDS011;9652;49.014;12.052;2023-02-01T07:55:30;3.70;;;3.40;;
19038;SDS011;9652;49.014;12.052;2023-02-01T07:57:58;4.10;;;3.70;;
19038;SDS011;9652;49.014;12.052;2023-02-01T08:00:25;4.20;;;3.80;;
19038;SDS011;9652;49.014;12.052;2023-02-01T08:03:11;11.57;;;4.57;;
19038;SDS011;9652;49.014;12.052;2023-02-01T08:05:38;4.23;;;3.63;;
19038;SDS011;9652;49.014;12.052;2023-02-01T08:08:06;3.73;;;3.43;;
19038;SDS011;9652;49.014;12.052;2023-02-01T08:10:33;3.83;;;3.53;;
19038;SDS011;9652;49.014;12.052;2023-02-01T08:13:00;3.33;;;3.07;;
19038;SDS011;9652;49.014;12.052;2023-02-01T08:15:29;3.63;;;3.33;;
19038;SDS011;9652;49.014;12.052;2023-02-01T08:17:56;4.00;;;3.70;;
19038;SDS011;9652;49.014;12.052;2023-02-01T08:20:26;3.83;;;3.50;;
19038;SDS011;9652;49.014;12.052;2023-02-01T08:22:53;3.73;;;3.43;;
19038;SDS011;9652;49.014;12.052;2023-02-01T08:25:21;4.00;;;3.70;;
19038;SDS011;9652;49.014;12.052;2023-02-01T08:27:49;4.93;;;3.57;;
19038;SDS011;9652;49.014;12.052;2023-02-01T08:30:18;3.80;;;3.50;;
19038;SDS011;9652;49.014;12.052;2023-02-01T08:32:46;3.33;;;3.13;;
19038;SDS011;9652;49.014;12.052;2023-02-01T08:35:14;3.50;;;3.30;;
19038;SDS011;9652;49.014;12.052;2023-02-01T08:37:42;3.37;;;3.17;;
19038;SDS011;9652;49.014;12.052;2023-02-01T08:40:10;3.83;;;3.53;;
19038;SDS011;9652;49.014;12.052;2023-02-01T08:42:38;3.80;;;3.50;;
19038;SDS011;9652;49.014;12.052;2023-02-01T08:45:19;4.17;;;3.77;;
19038;SDS011;9652;49.014;12.052;2023-02-01T08:47:52;3.57;;;3.33;;
19038;SDS011;9652;49.014;12.052;2023-02-01T08:50:19;5.00;;;3.40;;
19038;SDS011;9652;49.014;12.052;2023-02-01T08:52:50;3.50;;;3.30;;
19038;SDS011;9652;49.014;12.052;2023-02-01T08:55:18;3.30;;;3.10;;
19038;SDS011;9652;49.014;12.052;2023-02-01T08:57:45;3.87;;;3.43;;
19038;SDS011;9652;49.014;12.052;2023-02-01T09:02:43;4.00;;;3.63;;
19038;SDS011;9652;49.014;12.052;2023-02-01T09:05:11;3.40;;;3.20;;
19038;SDS011;9652;49.014;12.052;2023-02-01T09:07:39;3.40;;;2.90;;
19038;SDS011;9652;49.014;12.052;2023-02-01T09:10:08;2.97;;;2.87;;
19038;SDS011;9652;49.014;12.052;2023-02-01T09:12:36;3.33;;;3.10;;
19038;SDS011;9652;49.014;12.052;2023-02-01T09:15:04;2.80;;;2.60;;
19038;SDS011;9652;49.014;12.052;2023-02-01T09:17:33;3.33;;;3.13;;
19038;SDS011;9652;49.014;12.052;2023-02-01T09:20:01;2.97;;;2.77;;
19038;SDS011;9652;49.014;12.052;2023-02-01T09:22:29;2.90;;;2.73;;
19038;SDS011;9652;49.014;12.052;2023-02-01T09:24:56;3.10;;;2.90;;
19038;SDS011;9652;49.014;12.052;2023-02-01T09:27:24;3.07;;;2.87;;
19038;SDS011;9652;49.014;12.052;2023-02-01T09:29:52;2.70;;;2.50;;
19038;SDS011;9652;49.014;12.052;2023-02-01T09:32:19;3.20;;;3.00;;
19038;SDS011;9652;49.014;12.052;2023-02-01T09:34:46;3.10;;;2.90;;
19038;SDS011;9652;49.014;12.052;2023-02-01T09:37:13;3.20;;;2.90;;
19038;SDS011;9652;49.014;12.052;2023-02-01T09:39:40;3.03;;;2.83;;
19038;SDS011;9652;49.014;12.052;2023-02-01T09:42:12;3.87;;;3.20;;
19038;SDS011;9652;49.014;12.052;2023-02-01T09:45:06;2.80;;;2.60;;
19038;SDS011;9652;49.014;12.052;2023-02-01T09:47:46;3.03;;;2.93;;
19038;SDS011;9652;49.014;12.052;2023-02-01T09:50:21;2.80;;;2.63;;
19038;SDS011;9652;49.014;12.052;2023-02-01T09:52:57;3.10;;;2.90;;
19038;SDS011;9652;49.014;12.052;2023-02-01T09:55:32;3.37;;;3.10;;
19038;SDS011;9652;49.014;12.052;2023-02-01T09:58:08;3.60;;;3.30;;
19038;SDS011;9652;49.014;12.052;2023-02-01T10:00:48;2.90;;;2.70;;
19038;SDS011;9652;49.014;12.052;2023-02-01T10:03:20;3.47;;;3.27;;
19038;SDS011;9652;49.014;12.052;2023-02-01T10:05:56;3.23;;;2.93;;
19038;SDS011;9652;49.014;12.052;2023-02-01T10:08:51;3.20;;;3.00;;
19038;SDS011;9652;49.014;12.052;2023-02-01T10:11:39;3.23;;;3.03;;
19038;SDS011;9652;49.014;12.052;2023-02-01T10:14:32;3.53;;;3.03;;
19038;SDS011;9652;49.014;12.052;2023-02-01T10:17:27;4.60;;;3.50;;
19038;SDS011;9652;49.014;12.052;2023-02-01T10:20:12;3.83;;;3.47;;
19038;SDS011;9652;49.014;12.052;2023-02-01T10:22:54;4.17;;;3.87;;
19038;SDS011;9652;49.014;12.052;2023-02-01T10:25:41;4.53;;;3.67;;
19038;SDS011;9652;49.014;12.052;2023-02-01T10:28:20;3.67;;;3.37;;
19038;SDS011;9652;49.014;12.052;2023-02-01T10:30:52;3.93;;;3.43;;
19038;SDS011;9652;49.014;12.052;2023-02-01T10:33:25;4.53;;;4.00;;
19038;SDS011;9652;49.014;12.052;2023-02-01T10:35:58;4.07;;;3.77;;
19038;SDS011;9652;49.014;12.052;2023-02-01T10:38:37;4.00;;;3.60;;
19038;SDS011;9652;49.014;12.052;2023-02-01T10:41:07;5.50;;;4.13;;
19038;SDS011;9652;49.014;12.052;2023-02-01T10:43:39;5.87;;;3.80;;
19038;SDS011;9652;49.014;12.052;2023-02-01T10:46:09;4.57;;;3.70;;
19038;SDS011;9652;49.014;12.052;2023-02-01T10:48:36;6.97;;;3.70;;
19038;SDS011;9652;49.014;12.052;2023-02-01T10:51:06;4.47;;;3.40;;
19038;SDS011;9652;49.014;12.052;2023-02-01T10:53:42;7.67;;;3.73;;
19038;SDS011;9652;49.014;12.052;2023-02-01T10:56:21;4.33;;;3.83;;
19038;SDS011;9652;49.014;12.052;2023-02-01T10:58:50;4.70;;;4.27;;
19038;SDS011;9652;49.014;12.052;2023-02-01T11:01:30;6.10;;;3.87;;
19038;SDS011;9652;49.014;12.052;2023-02-01T11:04:04;5.27;;;4.33;;
19038;SDS011;9652;49.014;12.052;2023-02-01T11:06:36;9.33;;;4.20;;
19038;SDS011;9652;49.014;12.052;2023-02-01T11:09:10;5.40;;;3.80;;
19038;SDS011;9652;49.014;12.052;2023-02-01T11:11:58;3.37;;;3.07;;
19038;SDS011;9652;49.014;12.052;2023-02-01T11:14:27;8.03;;;4.63;;
19038;SDS011;9652;49.014;12.052;2023-02-01T11:17:16;4.23;;;3.83;;
19038;SDS011;9652;49.014;12.052;2023-02-01T11:19:56;4.60;;;4.00;;
19038;SDS011;9652;49.014;12.052;2023-02-01T11:22:25;5.07;;;3.37;;
19038;SDS011;9652;49.014;12.052;2023-02-01T11:24:54;4.90;;;3.80;;
19038;SDS011;9652;49.014;12.052;2023-02-01T11:27:23;4.03;;;3.60;;
19038;SDS011;9652;49.014;12.052;2023-02-01T11:29:52;5.23;;;4.03;;
19038;SDS011;9652;49.014;12.052;2023-02-01T11:32:27;4.07;;;3.20;;
19038;SDS011;9652;49.014;12.052;2023-02-01T11:34:55;5.60;;;4.00;;
19038;SDS011;9652;49.014;12.052;2023-02-01T11:37:28;6.13;;;3.83;;
19038;SDS011;9652;49.014;12.052;2023-02-01T11:40:01;4.80;;;3.70;;
19038;SDS011;9652;49.014;12.052;2023-02-01T11:42:53;4.23;;;3.60;;
19038;SDS011;9652;49.014;12.052;2023-02-01T11:45:24;4.40;;;3.50;;
19038;SDS011;9652;49.014;12.052;2023-02-01T11:47:55;3.47;;;3.00;;
19038;SDS011;9652;49.014;12.052;2023-02-01T11:50:28;7.33;;;5.03;;
19038;SDS011;9652;49.014;12.052;2023-02-01T11:53:08;3.70;;;3.40;;
19038;SDS011;9652;49.014;12.052;2023-02-01T11:55:55;3.83;;;2.90;;
19038;SDS011;9652;49.014;12.052;2023-02-01T11:58:42;7.63;;;4.17;;
19038;SDS011;9652;49.014;12.052;2023-02-01T12:01:37;4.17;;;3.03;;
19038;SDS011;9652;49.014;12.052;2023-02-01T12:07:29;3.73;;;2.87;;
19038;SDS011;9652;49.014;12.052;2023-02-01T12:10:20;4.40;;;4.00;;
19038;SDS011;9652;49.014;12.052;2023-02-01T12:13:00;6.13;;;3.10;;
19038;SDS011;9652;49.014;12.052;2023-02-01T12:15:46;4.40;;;3.03;;
19038;SDS011;9652;49.014;12.052;2023-02-01T12:18:40;4.23;;;3.43;;
19038;SDS011;9652;49.014;12.052;2023-02-01T12:24:49;3.90;;;3.27;;
19038;SDS011;9652;49.014;12.052;2023-02-01T12:27:51;6.83;;;2.90;;
19038;SDS011;9652;49.014;12.052;2023-02-01T12:30:52;3.37;;;2.63;;
19038;SDS011;9652;49.014;12.052;2023-02-01T12:33:55;4.97;;;2.73;;
19038;SDS011;9652;49.014;12.052;2023-02-01T12:36:44;4.27;;;2.53;;
19038;SDS011;9652;49.014;12.052;2023-02-01T12:39:26;7.53;;;3.10;;
19038;SDS011;9652;49.014;12.052;2023-02-01T12:41:58;5.27;;;3.00;;
19038;SDS011;9652;49.014;12.052;2023-02-01T12:44:40;6.93;;;2.83;;
19038;SDS011;9652;49.014;12.052;2023-02-01T12:47:16;4.43;;;2.83;;
19038;SDS011;9652;49.014;12.052;2023-02-01T12:49:53;4.03;;;3.60;;
19038;SDS011;9652;49.014;12.052;2023-02-01T12:52:28;4.20;;;3.07;;
19038;SDS011;9652;49.014;12.052;2023-02-01T12:55:08;3.03;;;2.73;;
19038;SDS011;9652;49.014;12.052;2023-02-01T12:57:49;3.40;;;3.10;;
19038;SDS011;9652;49.014;12.052;2023-02-01T13:00:23;2.90;;;2.70;;
19038;SDS011;9652;49.014;12.052;2023-02-01T13:03:00;3.27;;;2.97;;
19038;SDS011;9652;49.014;12.052;2023-02-01T13:05:40;2.90;;;2.63;;
19038;SDS011;9652;49.014;12.052;2023-02-01T13:08:25;4.40;;;3.40;;
19038;SDS011;9652;49.014;12.052;2023-02-01T13:11:03;3.20;;;2.90;;
19038;SDS011;9652;49.014;12.052;2023-02-01T13:13:41;6.97;;;3.70;;
19038;SDS011;9652;49.014;12.052;2023-02-01T13:16:21;6.47;;;3.90;;
19038;SDS011;9652;49.014;12.052;2023-02-01T13:19:03;6.17;;;3.27;;
19038;SDS011;9652;49.014;12.052;2023-02-01T13:21:40;4.70;;;3.57;;
19038;SDS011;9652;49.014;12.052;2023-02-01T13:24:18;4.50;;;3.40;;
19038;SDS011;9652;49.014;12.052;2023-02-01T13:26:58;4.20;;;3.33;;
19038;SDS011;9652;49.014;12.052;2023-02-01T13:29:27;3.10;;;2.90;;
19038;SDS011;9652;49.014;12.052;2023-02-01T13:32:18;4.27;;;3.33;;
19038;SDS011;9652;49.014;12.052;2023-02-01T13:35:23;4.90;;;3.30;;
19038;SDS011;9652;49.014;12.052;2023-02-01T13:41:25;7.40;;;3.70;;
19038;SDS011;9652;49.014;12.052;2023-02-01T13:43:59;5.33;;;3.13;;
19038;SDS011;9652;49.014;12.052;2023-02-01T13:46:38;3.93;;;3.43;;
19038;SDS011;9652;49.014;12.052;2023-02-01T13:49:13;6.17;;;3.23;;
19038;SDS011;9652;49.014;12.052;2023-02-01T13:51:47;5.00;;;3.10;;
19038;SDS011;9652;49.014;12.052;2023-02-01T13:54:25;5.80;;;3.30;;
19038;SDS011;9652;49.014;12.052;2023-02-01T13:56:57;3.77;;;3.47;;
19038;SDS011;9652;49.014;12.052;2023-02-01T13:59:44;3.80;;;3.03;;
19038;SDS011;9652;49.014;12.052;2023-02-01T14:02:36;5.87;;;3.40;;
19038;SDS011;9652;49.014;12.052;2023-02-01T14:05:54;3.50;;;3.20;;
19038;SDS011;9652;49.014;12.052;2023-02-01T14:08:40;5.03;;;2.93;;
19038;SDS011;9652;49.014;12.052;2023-02-01T14:11:31;4.17;;;2.83;;
19038;SDS011;9652;49.014;12.052;2023-02-01T14:14:07;4.57;;;3.20;;
19038;SDS011;9652;49.014;12.052;2023-02-01T14:17:29;3.40;;;3.10;;
19038;SDS011;9652;49.014;12.052;2023-02-01T14:23:28;3.60;;;3.30;;
19038;SDS011;9652;49.014;12.052;2023-02-01T14:26:04;3.40;;;3.10;;
19038;SDS011;9652;49.014;12.052;2023-02-01T14:28:57;5.90;;;2.60;;
19038;SDS011;9652;49.014;12.052;2023-02-01T14:34:31;3.97;;;2.90;;
19038;SDS011;9652;49.014;12.052;2023-02-01T14:37:22;3.77;;;3.47;;
19038;SDS011;9652;49.014;12.052;2023-02-01T14:39:55;3.37;;;3.00;;
19038;SDS011;9652;49.014;12.052;2023-02-01T14:42:27;3.67;;;3.17;;
19038;SDS011;9652;49.014;12.052;2023-02-01T14:51:14;3.57;;;2.70;;
19038;SDS011;9652;49.014;12.052;2023-02-01T14:53:43;6.07;;;3.20;;
19038;SDS011;9652;49.014;12.052;2023-02-01T14:56:13;5.73;;;3.57;;
19038;SDS011;9652;49.014;12.052;2023-02-01T14:58:47;3.73;;;2.80;;
19038;SDS011;9652;49.014;12.052;2023-02-01T15:01:24;3.40;;;3.07;;
19038;SDS011;9652;49.014;12.052;2023-02-01T15:03:57;3.60;;;3.30;;
19038;SDS011;9652;49.014;12.052;2023-02-01T15:06:32;3.00;;;2.80;;
19038;SDS011;9652;49.014;12.052;2023-02-01T15:09:07;12.40;;;2.80;;
19038;SDS011;9652;49.014;12.052;2023-02-01T15:11:54;5.47;;;3.00;;
19038;SDS011;9652;49.014;12.052;2023-02-01T15:14:29;3.00;;;2.70;;
19038;SDS011;9652;49.014;12.052;2023-02-01T15:16:58;3.07;;;2.80;;
19038;SDS011;9652;49.014;12.052;2023-02-01T15:19:28;5.27;;;2.73;;
19038;SDS011;9652;49.014;12.052;2023-02-01T15:21:57;4.40;;;2.47;;
19038;SDS011;9652;49.014;12.052;2023-02-01T15:24:27;5.00;;;2.90;;
19038;SDS011;9652;49.014;12.052;2023-02-01T15:26:58;5.17;;;2.73;;
19038;SDS011;9652;49.014;12.052;2023-02-01T15:29:30;3.43;;;2.93;;
19038;SDS011;9652;49.014;12.052;2023-02-01T15:31:58;4.57;;;2.63;;
19038;SDS011;9652;49.014;12.052;2023-02-01T15:37:14;4.20;;;2.77;;
19038;SDS011;9652;49.014;12.052;2023-02-01T15:42:49;4.77;;;3.20;;
19038;SDS011;9652;49.014;12.052;2023-02-01T15:45:20;3.23;;;2.90;;
19038;SDS011;9652;49.014;12.052;2023-02-01T15:47:52;5.37;;;3.13;;
19038;SDS011;9652;49.014;12.052;2023-02-01T15:50:24;4.87;;;3.03;;
19038;SDS011;9652;49.014;12.052;2023-02-01T15:52:53;3.13;;;2.67;;
19038;SDS011;9652;49.014;12.052;2023-02-01T15:55:22;3.50;;;3.20;;
19038;SDS011;9652;49.014;12.052;2023-02-01T15:58:04;4.63;;;3.17;;
19038;SDS011;9652;49.014;12.052;2023-02-01T16:00:34;5.13;;;3.17;;
19038;SDS011;9652;49.014;12.052;2023-02-01T16:03:24;3.00;;;2.80;;